sensor_id;sensor_type;location;lat;lon;timestamp;P1;durP1;ratioP1;P2;durP2;ratioP2
23624;SDS011;11989;47.872;12.014;2022-08-03T04:12:10;4.70;;;2.50;;
23624;SDS011;11989;47.872;12.014;2022-08-03T04:14:38;3.53;;;2.22;;
23624;SDS011;11989;47.872;12.014;2022-08-03T04:17:09;4.10;;;2.40;;
23624;SDS011;11989;47.872;12.014;2022-08-03T04:19:39;6.90;;;3.97;;
23624;SDS011;11989;47.872;12.014;2022-08-03T04:22:11;3.97;;;2.53;;
23624;SDS011;11989;47.872;12.014;2022-08-03T04:24:40;4.78;;;2.08;;
23624;SDS011;11989;47.872;12.014;2022-08-03T04:27:07;4.63;;;2.47;;
23624;SDS011;11989;47.872;12.014;2022-08-03T04:29:34;6.65;;;2.38;;
23624;SDS011;11989;47.872;12.014;2022-08-03T04:32:03;3.67;;;2.30;;
23624;SDS011;11989;47.872;12.014;2022-08-03T04:34:32;4.78;;;2.10;;
23624;SDS011;11989;47.872;12.014;2022-08-03T04:36:59;4.38;;;2.38;;
23624;SDS011;11989;47.872;12.014;2022-08-03T04:39:28;4.35;;;2.80;;
23624;SDS011;11989;47.872;12.014;2022-08-03T04:41:57;4.00;;;2.47;;
23624;SDS011;11989;47.872;12.014;2022-08-03T04:44:24;3.85;;;2.60;;
23624;SDS011;11989;47.872;12.014;2022-08-03T04:46:50;4.18;;;2.38;;
23624;SDS011;11989;47.872;12.014;2022-08-03T04:49:20;4.22;;;2.15;;
23624;SDS011;11989;47.872;12.014;2022-08-03T04:51:48;3.80;;;2.33;;
23624;SDS011;11989;47.872;12.014;2022-08-03T04:54:15;3.30;;;2.13;;
23624;SDS011;11989;47.872;12.014;2022-08-03T04:56:44;4.97;;;2.47;;
23624;SDS011;11989;47.872;12.014;2022-08-03T04:59:11;5.55;;;2.50;;
23624;SDS011;11989;47.872;12.014;2022-08-03T05:01:39;4.78;;;2.45;;
23624;SDS011;11989;47.872;12.014;2022-08-03T05:04:09;4.40;;;2.30;;
23624;SDS011;11989;47.872;12.014;2022-08-03T05:06:37;3.88;;;2.28;;
23624;SDS011;11989;47.872;12.014;2022-08-03T05:09:05;4.22;;;2.10;;
23624;SDS011;11989;47.872;12.014;2022-08-03T05:11:33;5.70;;;2.78;;
23624;SDS011;11989;47.872;12.014;2022-08-03T05:14:01;4.72;;;2.63;;
23624;SDS011;11989;47.872;12.014;2022-08-03T05:16:29;8.98;;;3.80;;
23624;SDS011;11989;47.872;12.014;2022-08-03T05:18:57;11.65;;;3.15;;
23624;SDS011;11989;47.872;12.014;2022-08-03T05:21:26;7.22;;;3.10;;
23624;SDS011;11989;47.872;12.014;2022-08-03T05:23:53;8.70;;;3.67;;
23624;SDS011;11989;47.872;12.014;2022-08-03T05:26:21;9.73;;;3.60;;
23624;SDS011;11989;47.872;12.014;2022-08-03T05:28:50;7.13;;;3.33;;
23624;SDS011;11989;47.872;12.014;2022-08-03T05:31:18;5.47;;;3.25;;
23624;SDS011;11989;47.872;12.014;2022-08-03T05:33:44;4.63;;;3.13;;
23624;SDS011;11989;47.872;12.014;2022-08-03T05:36:12;6.35;;;3.20;;
23624;SDS011;11989;47.872;12.014;2022-08-03T05:38:38;7.20;;;3.05;;
23624;SDS011;11989;47.872;12.014;2022-08-03T05:41:05;8.30;;;3.33;;
23624;SDS011;11989;47.872;12.014;2022-08-03T05:43:31;5.95;;;3.42;;
23624;SDS011;11989;47.872;12.014;2022-08-03T05:45:59;5.68;;;3.17;;
23624;SDS011;11989;47.872;12.014;2022-08-03T05:48:27;6.28;;;2.80;;
23624;SDS011;11989;47.872;12.014;2022-08-03T05:50:53;6.47;;;2.95;;
23624;SDS011;11989;47.872;12.014;2022-08-03T05:53:19;4.40;;;2.50;;
23624;SDS011;11989;47.872;12.014;2022-08-03T05:55:48;5.97;;;4.65;;
23624;SDS011;11989;47.872;12.014;2022-08-03T05:58:15;5.90;;;4.07;;
23624;SDS011;11989;47.872;12.014;2022-08-03T06:00:44;5.88;;;2.80;;
23624;SDS011;11989;47.872;12.014;2022-08-03T06:03:10;5.68;;;2.42;;
23624;SDS011;11989;47.872;12.014;2022-08-03T06:05:37;4.07;;;2.40;;
23624;SDS011;11989;47.872;12.014;2022-08-03T06:08:04;5.18;;;2.03;;
23624;SDS011;11989;47.872;12.014;2022-08-03T06:10:30;3.67;;;2.00;;
23624;SDS011;11989;47.872;12.014;2022-08-03T06:12:57;3.20;;;1.60;;
23624;SDS011;11989;47.872;12.014;2022-08-03T06:15:25;4.40;;;2.03;;
23624;SDS011;11989;47.872;12.014;2022-08-03T06:17:55;4.30;;;2.10;;
23624;SDS011;11989;47.872;12.014;2022-08-03T06:20:22;3.75;;;1.95;;
23624;SDS011;11989;47.872;12.014;2022-08-03T06:22:48;3.95;;;1.83;;
23624;SDS011;11989;47.872;12.014;2022-08-03T06:25:15;4.88;;;2.30;;
23624;SDS011;11989;47.872;12.014;2022-08-03T06:27:43;4.65;;;2.10;;
23624;SDS011;11989;47.872;12.014;2022-08-03T06:30:11;6.05;;;2.05;;
23624;SDS011;11989;47.872;12.014;2022-08-03T06:32:38;4.43;;;2.30;;
23624;SDS011;11989;47.872;12.014;2022-08-03T06:35:06;4.43;;;2.03;;
23624;SDS011;11989;47.872;12.014;2022-08-03T06:37:49;5.28;;;1.90;;
23624;SDS011;11989;47.872;12.014;2022-08-03T06:40:16;4.53;;;2.33;;
23624;SDS011;11989;47.872;12.014;2022-08-03T06:42:44;5.15;;;2.20;;
23624;SDS011;11989;47.872;12.014;2022-08-03T06:45:10;3.92;;;2.05;;
23624;SDS011;11989;47.872;12.014;2022-08-03T06:47:39;7.75;;;2.13;;
23624;SDS011;11989;47.872;12.014;2022-08-03T06:50:06;3.03;;;1.67;;
23624;SDS011;11989;47.872;12.014;2022-08-03T06:52:35;3.30;;;1.70;;
23624;SDS011;11989;47.872;12.014;2022-08-03T06:55:03;3.90;;;1.90;;
23624;SDS011;11989;47.872;12.014;2022-08-03T06:57:30;4.18;;;2.03;;
23624;SDS011;11989;47.872;12.014;2022-08-03T06:59:57;4.07;;;1.60;;
23624;SDS011;11989;47.872;12.014;2022-08-03T07:02:27;6.68;;;2.05;;
23624;SDS011;11989;47.872;12.014;2022-08-03T07:04:54;3.42;;;2.00;;
23624;SDS011;11989;47.872;12.014;2022-08-03T07:07:22;3.95;;;2.22;;
23624;SDS011;11989;47.872;12.014;2022-08-03T07:09:50;4.70;;;1.95;;
23624;SDS011;11989;47.872;12.014;2022-08-03T07:12:18;5.10;;;2.20;;
23624;SDS011;11989;47.872;12.014;2022-08-03T07:14:47;4.35;;;1.90;;
23624;SDS011;11989;47.872;12.014;2022-08-03T07:17:14;4.53;;;1.70;;
23624;SDS011;11989;47.872;12.014;2022-08-03T07:19:40;4.18;;;1.95;;
23624;SDS011;11989;47.872;12.014;2022-08-03T07:22:08;4.80;;;1.60;;
23624;SDS011;11989;47.872;12.014;2022-08-03T07:24:37;3.60;;;1.98;;
23624;SDS011;11989;47.872;12.014;2022-08-03T07:27:06;3.55;;;1.67;;
23624;SDS011;11989;47.872;12.014;2022-08-03T07:29:34;3.35;;;1.67;;
23624;SDS011;11989;47.872;12.014;2022-08-03T07:32:01;4.43;;;1.92;;
23624;SDS011;11989;47.872;12.014;2022-08-03T07:34:29;3.60;;;2.00;;
23624;SDS011;11989;47.872;12.014;2022-08-03T07:36:57;4.70;;;2.13;;
23624;SDS011;11989;47.872;12.014;2022-08-03T07:39:24;6.07;;;2.30;;
23624;SDS011;11989;47.872;12.014;2022-08-03T07:41:51;3.22;;;1.65;;
23624;SDS011;11989;47.872;12.014;2022-08-03T07:44:18;4.85;;;1.85;;
23624;SDS011;11989;47.872;12.014;2022-08-03T07:46:46;4.18;;;1.70;;
23624;SDS011;11989;47.872;12.014;2022-08-03T07:49:13;3.85;;;1.80;;
23624;SDS011;11989;47.872;12.014;2022-08-03T07:51:40;4.32;;;1.55;;
23624;SDS011;11989;47.872;12.014;2022-08-03T07:54:07;3.75;;;2.08;;
23624;SDS011;11989;47.872;12.014;2022-08-03T07:56:34;3.85;;;1.70;;
23624;SDS011;11989;47.872;12.014;2022-08-03T07:59:02;4.18;;;2.10;;
23624;SDS011;11989;47.872;12.014;2022-08-03T08:01:30;4.95;;;2.10;;
23624;SDS011;11989;47.872;12.014;2022-08-03T08:04:01;4.78;;;1.80;;
23624;SDS011;11989;47.872;12.014;2022-08-03T08:06:29;4.47;;;2.20;;
23624;SDS011;11989;47.872;12.014;2022-08-03T08:08:56;4.03;;;1.98;;
23624;SDS011;11989;47.872;12.014;2022-08-03T08:11:26;4.00;;;1.95;;
23624;SDS011;11989;47.872;12.014;2022-08-03T08:13:54;5.70;;;2.58;;
23624;SDS011;11989;47.872;12.014;2022-08-03T08:16:20;3.42;;;1.70;;
23624;SDS011;11989;47.872;12.014;2022-08-03T08:18:46;3.30;;;1.73;;
23624;SDS011;11989;47.872;12.014;2022-08-03T08:21:12;4.72;;;1.92;;
23624;SDS011;11989;47.872;12.014;2022-08-03T08:23:40;3.45;;;1.75;;
23624;SDS011;11989;47.872;12.014;2022-08-03T08:26:07;3.70;;;1.95;;
23624;SDS011;11989;47.872;12.014;2022-08-03T08:28:34;5.55;;;1.98;;
23624;SDS011;11989;47.872;12.014;2022-08-03T08:31:02;6.93;;;1.65;;
23624;SDS011;11989;47.872;12.014;2022-08-03T08:33:28;4.45;;;2.03;;
23624;SDS011;11989;47.872;12.014;2022-08-03T08:35:56;4.32;;;1.77;;
23624;SDS011;11989;47.872;12.014;2022-08-03T08:38:23;3.97;;;2.13;;
23624;SDS011;11989;47.872;12.014;2022-08-03T08:40:50;3.30;;;1.80;;
23624;SDS011;11989;47.872;12.014;2022-08-03T08:43:16;4.80;;;2.10;;
23624;SDS011;11989;47.872;12.014;2022-08-03T08:45:42;3.20;;;2.00;;
23624;SDS011;11989;47.872;12.014;2022-08-03T08:48:09;5.00;;;1.80;;
23624;SDS011;11989;47.872;12.014;2022-08-03T08:50:38;3.88;;;2.03;;
23624;SDS011;11989;47.872;12.014;2022-08-03T08:53:05;3.47;;;1.70;;
23624;SDS011;11989;47.872;12.014;2022-08-03T08:55:31;3.38;;;1.65;;
23624;SDS011;11989;47.872;12.014;2022-08-03T08:58:01;5.38;;;2.00;;
23624;SDS011;11989;47.872;12.014;2022-08-03T09:00:30;3.83;;;1.65;;
23624;SDS011;11989;47.872;12.014;2022-08-03T09:02:56;4.63;;;1.73;;
23624;SDS011;11989;47.872;12.014;2022-08-03T09:05:24;4.15;;;1.70;;
23624;SDS011;11989;47.872;12.014;2022-08-03T09:07:51;3.63;;;2.10;;
23624;SDS011;11989;47.872;12.014;2022-08-03T09:10:17;3.58;;;1.70;;
23624;SDS011;11989;47.872;12.014;2022-08-03T09:12:48;5.88;;;1.80;;
23624;SDS011;11989;47.872;12.014;2022-08-03T09:15:15;2.97;;;1.80;;
23624;SDS011;11989;47.872;12.014;2022-08-03T09:17:41;5.10;;;1.80;;
23624;SDS011;11989;47.872;12.014;2022-08-03T09:20:10;3.10;;;1.60;;
23624;SDS011;11989;47.872;12.014;2022-08-03T09:22:50;2.70;;;1.48;;
23624;SDS011;11989;47.872;12.014;2022-08-03T09:25:17;2.83;;;1.38;;
23624;SDS011;11989;47.872;12.014;2022-08-03T09:27:44;2.88;;;1.60;;
23624;SDS011;11989;47.872;12.014;2022-08-03T09:30:14;2.97;;;1.35;;
23624;SDS011;11989;47.872;12.014;2022-08-03T09:32:43;2.67;;;1.40;;
23624;SDS011;11989;47.872;12.014;2022-08-03T09:35:12;3.80;;;1.80;;
23624;SDS011;11989;47.872;12.014;2022-08-03T09:37:39;4.80;;;1.63;;
23624;SDS011;11989;47.872;12.014;2022-08-03T09:40:07;4.65;;;2.25;;
23624;SDS011;11989;47.872;12.014;2022-08-03T09:42:33;9.23;;;1.90;;
23624;SDS011;11989;47.872;12.014;2022-08-03T09:45:03;4.65;;;2.10;;
